Terminal Aerodrome Forecast
Issued by NWS

Home | Current Version | Previous Version | Text Only | Print | Product List | Glossary Off
Versions: 1 2 3 4 5 6 7 8 9 10 11 12 13 14 15

000
FTUS43 KICT 212300
TAFSLN
TAF
KSLN 212320Z 2200/2224 01017G25KT P6SM SKC
     FM220200 01008KT P6SM SKC
     FM221400 12010KT P6SM SKC
     FM222100 16015KT P6SM SKC=

USA.gov is the U.S. government's official web portal to all federal, state and local government web resources and services.